Time;durP1;ratioP1;P1;durP2;ratioP2;P2;SDS_P1;SDS_P2;PMS_P1;PMS_P2;Temp;Humidity;BMP_temperature;BMP_pressure;BME280_temperature;BME280_humidity;BME280_pressure;Samples;Min_cycle;Max_cycle;Signal;HPM_P1;HPM_P2
2021/06/17 00:00:27;;;;;;;6.25;4.35;;;23.30;99.90;;;24.70;52.81;100081.31;6186042;23;20016;-88
2021/06/17 00:02:56;;;;;;;5.63;5.00;;;23.20;99.90;;;24.62;53.13;100089.38;6187801;23;20036;-88
2021/06/17 00:05:27;;;;;;;5.90;5.20;;;23.20;99.90;;;24.49;53.39;100089.47;6187278;23;20060;-88
2021/06/17 00:07:54;;;;;;;7.95;4.85;;;23.10;99.90;;;24.41;53.77;100088.13;6186605;23;20011;-87
2021/06/17 00:10:36;;;;;;;6.63;4.85;;;23.00;99.90;;;24.37;53.89;100087.47;6188859;23;19997;-88
2021/06/17 00:13:10;;;;;;;7.35;4.60;;;22.90;99.90;;;24.31;53.96;100086.47;6185785;23;20001;-88
2021/06/17 00:15:39;;;;;;;7.15;4.45;;;22.90;99.90;;;24.31;53.94;100075.06;6185215;23;20009;-88
2021/06/17 00:18:08;;;;;;;6.38;4.53;;;22.90;99.90;;;24.28;54.32;100086.59;6183472;23;20012;-86
2021/06/17 00:20:35;;;;;;;5.75;4.95;;;22.80;99.90;;;24.17;54.57;100074.81;6183297;23;20048;-89
2021/06/17 00:23:01;;;;;;;8.18;5.10;;;22.80;99.90;;;24.08;55.04;100076.28;6184903;23;20009;-90
2021/06/17 00:25:28;;;;;;;7.63;4.93;;;22.70;99.90;;;24.01;55.20;100070.88;6186713;23;20016;-84
2021/06/17 00:27:54;;;;;;;5.53;4.68;;;22.50;99.90;;;23.97;55.75;100070.22;6186969;23;20008;-88
2021/06/17 00:30:22;;;;;;;5.80;4.88;;;22.50;99.90;;;23.86;56.29;100074.69;6187146;23;20085;-88
2021/06/17 00:32:48;;;;;;;7.93;5.32;;;22.40;99.90;;;23.83;56.02;100067.06;6186915;23;20104;-86
2021/06/17 00:35:15;;;;;;;8.00;4.95;;;22.30;99.90;;;23.78;56.14;100065.63;6187300;23;20005;-90
2021/06/17 00:37:41;;;;;;;6.20;5.28;;;22.40;99.90;;;23.76;56.40;100070.97;6185216;23;20016;-88
2021/06/17 00:40:13;;;;;;;6.35;4.85;;;22.20;99.90;;;23.75;56.25;100060.03;6186934;23;20016;-87
2021/06/17 00:42:45;;;;;;;6.30;5.07;;;22.30;99.90;;;23.79;56.11;100058.63;6187271;23;20079;-89
2021/06/17 00:45:21;;;;;;;8.27;4.93;;;22.40;99.90;;;23.86;56.02;100063.28;6185051;23;20024;-86
2021/06/17 00:47:47;;;;;;;;;;;22.40;99.90;;;23.88;56.04;100064.44;6186054;23;20013;-90
2021/06/17 00:50:14;;;;;;;6.93;5.32;;;22.40;99.90;;;23.86;55.92;100057.59;6209950;23;19927;-89
2021/06/17 00:52:43;;;;;;;5.82;4.90;;;22.40;99.90;;;23.82;56.24;100062.63;6185983;23;20013;-85
2021/06/17 00:55:10;;;;;;;7.82;5.28;;;22.30;99.90;;;23.75;56.55;100066.53;6187433;23;20009;-89
2021/06/17 00:57:39;;;;;;;7.65;5.28;;;22.30;99.90;;;23.71;56.38;100062.22;6187922;23;20005;-85
2021/06/17 01:00:11;;;;;;;5.35;4.82;;;22.30;99.90;;;23.74;56.41;100061.28;6187782;23;20005;-86
2021/06/17 01:02:37;;;;;;;7.35;5.22;;;22.20;99.90;;;23.73;56.66;100060.50;6186407;23;20343;-87
2021/06/17 01:05:11;;;;;;;6.78;5.25;;;22.20;99.90;;;23.63;57.22;100063.75;6184936;23;20100;-86
2021/06/17 01:08:00;;;;;;;5.85;5.07;;;22.10;99.90;;;23.50;57.91;100066.63;6185399;23;20041;-88
2021/06/17 01:10:36;;;;;;;7.00;4.82;;;22.00;99.90;;;23.28;58.49;100062.91;6185856;23;20517;-88
2021/06/17 01:13:11;;;;;;;9.18;4.93;;;21.80;99.90;;;23.14;58.82;100064.16;6187555;23;20001;-86
2021/06/17 01:16:01;;;;;;;6.90;4.93;;;21.70;99.90;;;23.15;58.57;100059.28;6210802;23;20391;-84
2021/06/17 01:21:06;;;;;;;5.60;5.00;;;21.80;99.90;;;23.43;57.59;100049.78;6161807;23;20036;-89
2021/06/17 01:24:25;;;;;;;6.32;5.20;;;22.00;99.90;;;23.40;57.89;100042.94;6164363;23;20002;-88
2021/06/17 01:28:04;;;;;;;6.07;5.47;;;21.90;99.90;;;23.43;57.77;100049.78;6175935;23;20021;-87
2021/06/17 01:30:42;;;;;;;8.25;5.40;;;22.00;99.90;;;23.57;57.11;100049.25;6152562;23;20477;-88
2021/06/17 01:33:09;;;;;;;7.47;5.38;;;22.10;99.90;;;23.56;56.79;100033.44;6128328;23;20006;-87
2021/06/17 01:35:46;;;;;;;8.40;5.45;;;22.10;99.90;;;23.61;56.81;100038.53;6128777;23;20057;-89
2021/06/17 01:38:20;;;;;;;5.93;5.32;;;22.10;99.90;;;23.60;56.55;100046.28;6128392;23;20491;-90
2021/06/17 01:40:50;;;;;;;6.68;5.20;;;22.20;99.90;;;23.66;56.42;100032.25;6128885;23;20005;-90
2021/06/17 01:43:19;;;;;;;6.20;5.43;;;22.20;99.90;;;23.75;56.23;100037.22;6129261;23;20010;-88
2021/06/17 01:45:51;;;;;;;5.50;4.53;;;22.30;99.90;;;23.77;56.05;100037.56;6128981;23;20005;-88
2021/06/17 01:48:18;;;;;;;5.70;4.80;;;22.30;99.90;;;23.77;56.10;100029.78;6129044;23;20034;-88
2021/06/17 01:50:48;;;;;;;5.82;4.80;;;22.30;99.90;;;23.74;56.41;100027.06;6153398;23;20033;-87
2021/06/17 01:53:23;;;;;;;5.38;4.35;;;22.30;99.90;;;23.61;56.62;100021.44;6129193;23;20056;-88
2021/06/17 01:55:58;;;;;;;5.60;5.07;;;22.20;99.90;;;23.55;56.94;100029.78;6128716;23;20010;-88
2021/06/17 01:58:28;;;;;;;5.65;5.00;;;22.20;99.90;;;23.50;57.26;100029.59;6128366;23;20022;-87
2021/06/17 02:00:57;;;;;;;6.45;4.95;;;22.10;99.90;;;23.27;58.65;100035.66;6136723;23;20065;-87
2021/06/17 02:03:31;;;;;;;6.25;5.05;;;21.90;99.90;;;23.02;59.22;100040.13;6173139;23;20396;-88
2021/06/17 02:05:57;;;;;;;5.82;4.72;;;21.60;99.90;;;22.81;59.75;100035.16;6154012;23;20021;-90
2021/06/17 02:08:26;;;;;;;7.03;5.57;;;21.50;99.90;;;22.83;59.65;100040.41;6129741;23;20002;-89
2021/06/17 02:10:54;;;;;;;8.40;4.78;;;21.40;99.90;;;22.82;59.39;100039.59;6127865;23;20038;-87
2021/06/17 02:13:22;;;;;;;8.77;5.28;;;21.50;99.90;;;22.90;58.75;100037.28;6153018;23;20420;-90
2021/06/17 02:15:50;;;;;;;7.03;5.13;;;21.60;99.90;;;23.12;58.23;100041.03;6127337;23;20017;-88
2021/06/17 02:18:25;;;;;;;5.45;4.57;;;21.80;99.90;;;23.27;57.71;100049.91;6128412;23;20045;-86
2021/06/17 02:20:54;;;;;;;6.40;4.65;;;21.90;99.90;;;23.26;57.98;100048.28;6130354;23;20006;-88
2021/06/17 02:23:26;;;;;;;6.82;5.28;;;21.80;99.90;;;23.10;58.50;100041.50;6128927;23;20014;-90
2021/06/17 02:25:58;;;;;;;8.13;4.75;;;21.80;99.90;;;22.94;59.36;100046.53;6130435;23;20424;-88
2021/06/17 02:28:33;;;;;;;8.02;5.35;;;21.60;99.90;;;22.82;59.38;100033.91;6130007;23;20040;-86
2021/06/17 02:31:08;;;;;;;6.35;5.10;;;21.50;99.90;;;22.92;59.17;100034.81;6104067;23;20006;-87
2021/06/17 02:33:37;;;;;;;5.45;4.78;;;21.50;99.90;;;22.92;58.99;100035.59;6104464;23;20010;-87
2021/06/17 02:36:06;;;;;;;6.80;4.97;;;21.60;99.90;;;22.94;58.96;100029.44;6103736;23;20321;-87
2021/06/17 02:38:40;;;;;;;7.18;4.57;;;21.50;99.90;;;22.91;58.89;100028.31;6129496;23;20013;-89
2021/06/17 02:41:13;;;;;;;5.63;4.85;;;21.50;99.90;;;22.92;58.95;100032.75;6127430;23;20424;-89
2021/06/17 02:43:47;;;;;;;7.75;5.00;;;21.50;99.90;;;22.87;59.19;100038.22;6131206;23;20432;-89
2021/06/17 02:46:15;;;;;;;5.15;4.60;;;21.50;99.90;;;22.78;59.54;100038.91;6104445;23;20064;-87
2021/06/17 02:48:41;;;;;;;8.45;5.63;;;21.40;99.90;;;22.66;59.75;100036.88;6104521;23;20036;-87
2021/06/17 02:51:07;;;;;;;7.95;5.25;;;21.30;99.90;;;22.65;59.77;100040.13;6129660;23;20006;-84
2021/06/17 02:53:33;;;;;;;10.57;4.90;;;21.30;99.90;;;22.72;59.36;100039.94;6105362;23;20414;-89
2021/06/17 02:56:09;;;;;;;5.57;4.97;;;21.40;99.90;;;22.83;59.20;100041.16;6105798;23;20463;-90
2021/06/17 02:59:06;;;;;;;8.25;5.32;;;21.50;99.90;;;22.89;59.08;100047.13;6128468;23;20060;-88
2021/06/17 03:02:10;;;;;;;;;;;21.50;99.90;;;22.89;58.89;100045.03;6095023;23;20009;-87
2021/06/17 03:05:03;;;;;;;9.30;4.93;;;21.50;99.90;;;22.94;58.76;100035.94;6105537;23;19904;-86
2021/06/17 03:07:44;;;;;;;7.63;5.32;;;21.60;99.90;;;23.03;58.61;100043.78;6105783;23;20061;-88
2021/06/17 03:10:15;;;;;;;7.43;5.22;;;21.60;99.90;;;23.02;58.21;100033.66;6107679;23;20020;-87
2021/06/17 03:12:45;;;;;;;6.40;4.95;;;21.70;99.90;;;23.02;58.10;100027.97;6110096;23;20089;-86
2021/06/17 03:15:13;;;;;;;8.85;5.20;;;21.70;99.90;;;23.04;58.30;100031.13;6110770;23;20042;-87
2021/06/17 03:21:23;;;;;;;8.30;5.15;;;21.70;99.90;;;23.01;58.75;100032.06;6194812;23;20028;-88
2021/06/17 03:23:56;;;;;;;7.20;5.55;;;21.60;99.90;;;22.86;59.09;100028.09;6169442;23;20100;-86
2021/06/17 03:26:25;;;;;;;5.85;4.93;;;21.50;99.90;;;22.77;59.37;100017.38;6190799;23;20418;-87
2021/06/17 03:28:55;;;;;;;8.35;5.10;;;21.30;99.90;;;22.55;60.41;100024.97;6186953;23;20012;-87
2021/06/17 03:31:24;;;;;;;6.15;5.10;;;21.20;99.90;;;22.35;61.13;100021.53;6189371;23;20005;-88
2021/06/17 03:33:55;;;;;;;7.07;5.22;;;21.00;99.90;;;22.32;61.29;100028.13;6190537;23;20055;-87
2021/06/17 03:36:24;;;;;;;8.25;5.10;;;20.90;99.90;;;22.30;61.32;100030.66;6190562;23;20009;-88
2021/06/17 03:38:53;;;;;;;7.30;4.90;;;20.90;99.90;;;22.30;61.15;100030.66;6188506;23;20056;-87
2021/06/17 03:41:22;;;;;;;8.48;5.22;;;20.90;99.90;;;22.39;60.82;100034.41;6187670;23;20103;-89
2021/06/17 03:43:51;;;;;;;6.55;5.00;;;20.90;99.90;;;22.42;60.80;100027.81;6187424;23;20446;-87
2021/06/17 03:46:20;;;;;;;6.88;5.28;;;21.00;99.90;;;22.49;60.47;100036.13;6188571;23;20100;-87
2021/06/17 03:48:48;;;;;;;6.22;5.20;;;21.00;99.90;;;22.58;60.19;100041.94;6191204;23;20033;-89
2021/06/17 03:51:15;;;;;;;7.68;4.75;;;21.10;99.90;;;22.62;60.11;100041.03;6196051;23;20056;-91
2021/06/17 03:53:46;;;;;;;7.05;4.82;;;21.20;99.90;;;22.71;59.84;100044.81;6196133;23;20068;-88
2021/06/17 03:56:15;;;;;;;10.48;4.60;;;21.30;99.90;;;22.77;59.36;100045.84;6198274;23;20020;-91
2021/06/17 03:58:48;;;;;;;8.40;5.03;;;21.40;99.90;;;22.80;59.15;100055.53;6194628;23;20320;-88
2021/06/17 04:01:18;;;;;;;5.32;4.65;;;21.40;99.90;;;22.92;59.03;100057.59;6194142;23;20021;-87
2021/06/17 04:03:48;;;;;;;6.18;5.05;;;21.50;99.90;;;22.91;58.81;100053.94;6217142;23;20009;-87
2021/06/17 04:06:18;;;;;;;8.27;5.22;;;21.60;99.90;;;22.99;58.72;100055.28;6191782;23;20004;-89
2021/06/17 04:08:50;;;;;;;6.18;4.78;;;21.60;99.90;;;23.02;58.48;100056.44;6191374;23;20004;-89
2021/06/17 04:11:22;;;;;;;6.57;4.47;;;21.60;99.90;;;22.99;58.76;100058.13;6194273;23;20001;-88
2021/06/17 04:13:53;;;;;;;6.30;4.70;;;21.70;99.90;;;23.07;58.72;100061.56;6193168;23;20005;-88
2021/06/17 04:16:25;;;;;;;6.35;4.32;;;21.70;99.90;;;23.12;58.63;100060.19;6190866;23;20045;-89
2021/06/17 04:18:55;;;;;;;6.68;4.75;;;21.70;99.90;;;23.14;58.47;100063.38;6190521;23;20067;-88
2021/06/17 04:21:23;;;;;;;7.38;5.43;;;21.70;99.90;;;23.21;58.42;100063.94;6191460;23;20443;-88
2021/06/17 04:23:57;;;;;;;8.45;4.70;;;21.80;99.90;;;23.33;58.25;100065.97;6189079;23;20028;-88
2021/06/17 04:26:27;;;;;;;6.82;4.80;;;21.80;99.90;;;23.39;58.20;100057.63;6189696;23;20020;-89
2021/06/17 04:28:55;;;;;;;5.95;4.70;;;21.90;99.90;;;23.47;57.68;100059.78;6189268;23;20024;-87
2021/06/17 04:31:28;;;;;;;7.20;5.00;;;22.00;99.90;;;23.53;57.79;100060.81;6201979;23;20000;-88
2021/06/17 04:34:01;;;;;;;9.10;4.57;;;22.00;99.90;;;23.69;57.08;100061.88;6208256;23;19993;-88
2021/06/17 04:36:29;;;;;;;6.35;4.53;;;22.20;99.90;;;23.90;56.83;100056.19;6191768;23;20417;-92
2021/06/17 04:38:55;;;;;;;8.45;5.15;;;22.40;99.90;;;24.07;55.85;100068.22;6191758;23;20009;-88
2021/06/17 04:41:22;;;;;;;7.90;4.45;;;22.60;99.90;;;24.29;55.31;100065.38;6194402;23;20004;-89
2021/06/17 04:43:49;;;;;;;6.68;4.15;;;22.70;99.90;;;24.40;55.25;100063.69;6194441;23;20040;-86
2021/06/17 04:46:18;;;;;;;5.35;4.07;;;22.90;99.90;;;24.54;54.54;100059.50;6194409;23;20009;-88
2021/06/17 04:48:47;;;;;;;7.68;4.05;;;23.00;99.90;;;24.63;54.38;100062.41;6195952;23;20400;-88
2021/06/17 04:51:16;;;;;;;7.18;4.50;;;23.10;99.90;;;24.77;53.93;100063.88;6203108;23;20047;-85
2021/06/17 04:53:43;;;;;;;6.22;3.90;;;23.20;99.90;;;24.93;53.39;100053.03;6203387;23;20020;-85
2021/06/17 04:56:08;;;;;;;7.38;4.80;;;23.40;99.90;;;25.02;52.97;100061.66;6192112;23;20382;-87
2021/06/17 04:58:36;;;;;;;5.85;4.57;;;23.50;99.90;;;25.14;52.39;100062.81;6192240;23;20009;-86
2021/06/17 05:01:06;;;;;;;7.18;4.40;;;23.60;99.90;;;25.34;52.03;100059.50;6193560;23;20398;-89
2021/06/17 05:03:32;;;;;;;5.75;4.15;;;23.70;99.90;;;25.45;51.64;100065.56;6192695;23;20008;-88
2021/06/17 05:06:01;;;;;;;6.90;4.60;;;23.80;99.90;;;25.62;51.46;100066.91;6190307;23;20027;-89
2021/06/17 05:11:16;;;;;;;;;;;24.10;99.90;;;25.98;50.82;100066.09;6192052;23;20234;-90
2021/06/17 05:13:43;;;;;;;10.32;4.22;;;24.20;99.90;;;26.11;50.28;100075.31;6191573;23;19904;-87
2021/06/17 05:16:09;;;;;;;7.85;4.20;;;24.40;99.90;;;26.28;49.72;100070.88;6196312;23;20093;-88
2021/06/17 05:18:35;;;;;;;11.32;4.80;;;24.50;99.90;;;26.28;50.09;100064.34;6192184;23;20009;-88
2021/06/17 05:21:01;;;;;;;9.80;4.60;;;24.70;99.90;;;26.63;49.38;100072.06;6190024;23;20335;-89
2021/06/17 05:23:28;;;;;;;8.30;4.13;;;24.80;99.90;;;26.78;49.14;100069.28;6191467;23;20011;-89
2021/06/17 05:25:58;;;;;;;8.80;4.25;;;25.00;99.90;;;26.82;48.71;100077.72;6192017;23;20059;-88
2021/06/17 05:28:27;;;;;;;5.80;4.20;;;25.10;99.90;;;27.01;48.17;100073.50;6191288;23;20012;-87
2021/06/17 05:31:00;;;;;;;4.57;4.03;;;25.30;99.90;;;27.04;47.70;100070.47;6189776;23;20005;-89
2021/06/17 05:33:30;;;;;;;6.72;4.38;;;25.40;99.00;;;27.19;47.48;100071.38;6190081;23;20465;-87
2021/06/17 05:35:58;;;;;;;6.55;4.55;;;25.50;98.10;;;27.21;47.16;100071.66;6190079;23;20461;-87
2021/06/17 05:38:25;;;;;;;5.75;4.63;;;25.60;96.90;;;27.41;46.96;100082.56;6189668;23;20005;-86
2021/06/17 05:40:52;;;;;;;6.57;4.18;;;25.80;96.10;;;27.74;46.29;100071.03;6189757;23;20009;-89
2021/06/17 05:43:20;;;;;;;5.22;3.70;;;26.00;95.00;;;27.64;45.66;100078.91;6193257;23;20268;-85
2021/06/17 05:45:46;;;;;;;9.90;4.13;;;26.10;92.50;;;27.66;46.25;100069.81;6189641;23;20020;-86
2021/06/17 05:48:12;;;;;;;6.97;3.72;;;26.10;92.30;;;27.93;45.64;100077.41;6194442;23;20407;-86
2021/06/17 05:50:38;;;;;;;10.23;4.20;;;26.30;91.70;;;28.28;45.10;100087.00;6188576;23;20009;-88
2021/06/17 05:53:05;;;;;;;5.28;3.80;;;26.50;91.30;;;28.16;44.63;100093.81;6194159;23;20005;-88
2021/06/17 05:55:32;;;;;;;4.97;3.78;;;26.60;88.10;;;28.25;44.25;100088.81;6192189;23;20009;-86
2021/06/17 05:57:59;;;;;;;4.88;3.85;;;26.80;85.80;;;28.60;43.86;100094.66;6197459;23;20009;-90
2021/06/17 06:00:25;;;;;;;5.18;4.13;;;26.90;84.70;;;28.74;43.26;100088.13;6193801;23;20013;-88
2021/06/17 06:02:55;;;;;;;7.50;3.85;;;27.10;83.10;;;28.87;43.15;100101.38;6190580;23;20024;-91
2021/06/17 06:05:21;;;;;;;6.47;3.78;;;27.20;81.40;;;28.98;43.07;100082.25;6190158;23;20431;-89
2021/06/17 06:07:59;;;;;;;5.38;3.80;;;27.40;80.80;;;29.08;42.01;100088.69;6214671;23;20029;-91
2021/06/17 06:10:31;;;;;;;9.15;4.10;;;27.60;77.50;;;29.08;42.31;100075.09;6188207;23;20027;-89
2021/06/17 06:12:58;;;;;;;8.18;4.00;;;27.60;76.10;;;29.28;41.43;100080.91;6188547;23;20004;-91
2021/06/17 06:15:32;;;;;;;8.43;3.72;;;27.80;73.90;;;29.58;40.69;100089.44;6190008;23;20040;-90
2021/06/17 06:18:16;;;;;;;7.20;3.80;;;27.90;72.80;;;29.86;41.08;100090.63;6195916;23;20012;-91
2021/06/17 06:20:46;;;;;;;6.78;3.90;;;28.10;73.30;;;29.84;39.74;100092.41;6195427;23;20506;-89
2021/06/17 06:23:16;;;;;;;6.70;3.38;;;28.30;70.00;;;30.10;39.30;100087.50;6169542;23;20506;-89
2021/06/17 06:25:47;;;;;;;9.25;4.07;;;28.50;69.00;;;29.78;39.79;100092.31;6167332;23;20032;-88
2021/06/17 06:28:13;;;;;;;8.25;3.80;;;28.40;68.30;;;30.21;39.52;100091.28;6165113;23;20001;-87
2021/06/17 06:30:39;;;;;;;7.75;4.10;;;28.60;68.10;;;30.29;39.11;100085.88;6191892;23;20012;-89
2021/06/17 06:33:07;;;;;;;11.63;4.28;;;28.70;67.30;;;30.61;38.64;100090.44;6165534;23;20009;-90
2021/06/17 06:35:33;;;;;;;6.53;3.10;;;28.90;66.60;;;30.73;37.55;100103.63;6169290;23;20016;-89
2021/06/17 06:38:10;;;;;;;9.38;3.97;;;29.00;64.40;;;30.64;38.65;100106.69;6167035;23;20009;-89
2021/06/17 06:40:42;;;;;;;7.47;3.97;;;29.10;65.10;;;30.75;37.82;100095.28;6170272;23;20041;-89
2021/06/17 06:43:15;;;;;;;9.57;4.13;;;29.20;63.90;;;30.70;38.18;100095.22;6198513;23;20016;-88
2021/06/17 06:45:49;;;;;;;7.10;3.72;;;29.30;64.00;;;30.91;37.55;100095.94;6169149;23;20063;-88
2021/06/17 06:48:18;;;;;;;10.73;3.78;;;29.30;63.10;;;31.17;37.57;100085.94;6166871;23;20009;-88
2021/06/17 06:50:48;;;;;;;7.72;3.22;;;29.50;63.90;;;31.46;37.19;100089.78;6165353;23;20034;-88
2021/06/17 06:53:14;;;;;;;9.40;4.30;;;29.70;63.00;;;31.77;36.89;100095.50;6164225;23;20001;-89
2021/06/17 06:55:43;;;;;;;9.07;4.18;;;29.90;62.50;;;31.91;36.16;100094.50;6166275;23;20009;-89
2021/06/17 06:58:15;;;;;;;5.22;3.63;;;30.10;61.00;;;31.72;35.83;100097.03;6165878;23;20126;-87
2021/06/17 07:00:45;;;;;;;7.47;3.67;;;30.20;59.60;;;31.48;36.54;100076.41;6192817;23;20296;-90
2021/06/17 07:03:32;;;;;;;6.20;3.33;;;30.10;60.20;;;32.20;35.94;100076.78;6167842;23;20038;-89
2021/06/17 07:06:09;;;;;;;;;;;;;;;;;;;;;
2021/06/17 07:08:45;;;;;;;;;;;;;;;;;;;;;
2021/06/17 07:11:22;;;;;;;9.38;4.22;;;30.40;59.60;;;32.22;35.63;100084.91;6194008;23;20020;-90
2021/06/17 07:13:52;;;;;;;4.70;3.75;;;30.60;58.90;;;32.01;35.36;100081.44;6192576;23;20451;-88
2021/06/17 07:16:25;;;;;;;7.82;3.92;;;30.60;58.00;;;32.26;35.24;100076.78;6188564;23;20230;-90
2021/06/17 07:19:00;;;;;;;8.15;4.03;;;30.60;58.10;;;31.99;35.55;100084.03;6160993;23;20021;-88
2021/06/17 07:21:26;;;;;;;;;;;30.60;57.70;;;32.49;34.95;100083.41;6190542;23;20076;-84
2021/06/17 07:23:53;;;;;;;6.90;3.85;;;30.80;58.40;;;32.81;35.73;100096.34;6203120;23;19900;-84
2021/06/17 07:26:29;;;;;;;6.32;3.88;;;30.90;59.50;;;32.68;34.49;100088.19;6198742;23;20017;-85
2021/06/17 07:28:59;;;;;;;5.75;3.78;;;31.10;57.20;;;32.82;34.27;100095.00;6184741;23;20099;-89
2021/06/17 07:31:26;;;;;;;5.85;4.32;;;31.20;56.60;;;33.02;34.04;100091.06;6158887;23;20009;-88
2021/06/17 07:33:52;;;;;;;8.23;4.55;;;31.30;56.30;;;33.19;34.38;100091.88;6184074;23;20465;-87
2021/06/17 07:36:18;;;;;;;8.20;4.57;;;31.50;56.50;;;33.55;33.15;100092.84;6184233;23;20435;-89
2021/06/17 07:38:45;;;;;;;8.52;4.47;;;31.70;55.70;;;33.25;33.73;100104.22;6159870;23;20009;-89
2021/06/17 07:41:11;;;;;;;6.65;3.67;;;31.80;55.10;;;33.48;33.27;100099.97;6185206;23;20005;-87
2021/06/17 07:43:38;;;;;;;5.53;4.13;;;31.60;55.10;;;33.97;33.16;100112.75;6160036;23;20044;-85
2021/06/17 07:46:05;;;;;;;7.88;3.97;;;32.00;55.40;;;34.17;32.56;100112.41;6185529;23;20092;-90
2021/06/17 07:48:32;;;;;;;4.78;4.07;;;32.20;54.90;;;34.38;32.49;100109.94;6184676;23;20013;-87
2021/06/17 07:50:59;;;;;;;6.35;3.70;;;32.40;54.70;;;34.49;32.22;100104.03;6163575;23;20052;-88
2021/06/17 07:53:26;;;;;;;4.72;3.25;;;32.60;54.10;;;34.83;31.38;100113.34;6185948;23;20005;-88
2021/06/17 07:55:52;;;;;;;5.68;3.50;;;32.90;53.20;;;34.99;31.39;100114.53;6185656;23;20470;-88
2021/06/17 07:58:18;;;;;;;8.05;3.35;;;32.90;53.20;;;35.15;30.89;100120.22;6185293;23;20013;-89
2021/06/17 08:00:43;;;;;;;7.68;3.40;;;33.10;52.20;;;35.09;30.33;100104.16;6185159;23;20068;-89
2021/06/17 08:03:10;;;;;;;4.22;3.17;;;33.10;51.20;;;35.48;30.52;100103.78;6183882;23;20085;-88
2021/06/17 08:05:36;;;;;;;4.63;3.60;;;33.30;52.10;;;35.84;30.39;100105.22;6161321;23;20372;-87
2021/06/17 08:08:03;;;;;;;4.22;3.10;;;33.60;52.00;;;36.08;29.17;100096.50;6184320;23;20006;-85
2021/06/17 08:10:29;;;;;;;7.30;3.08;;;33.80;50.50;;;35.94;29.35;100100.63;6160020;23;20017;-89
2021/06/17 08:12:55;;;;;;;5.13;3.30;;;33.90;50.00;;;35.91;29.63;100116.25;6185248;23;20006;-84
2021/06/17 08:15:22;;;;;;;5.03;3.47;;;33.90;50.40;;;35.76;30.12;100113.00;6185582;23;20020;-86
2021/06/17 08:17:49;;;;;;;6.57;3.20;;;33.80;50.80;;;36.25;29.16;100110.81;6161553;23;20013;-86
2021/06/17 08:20:15;;;;;;;9.25;3.90;;;34.00;50.10;;;36.45;29.22;100105.22;6164584;23;20012;-87
2021/06/17 08:22:43;;;;;;;4.13;2.85;;;34.20;50.20;;;36.85;28.80;100093.78;6191777;23;20009;-89
2021/06/17 08:25:12;;;;;;;3.63;3.10;;;34.30;49.80;;;36.97;28.60;100092.25;6189298;23;20013;-87
2021/06/17 08:27:41;;;;;;;7.72;3.13;;;34.40;49.90;;;37.31;28.19;100095.41;6165106;23;20005;-86
2021/06/17 08:30:14;;;;;;;6.72;3.42;;;34.60;49.10;;;36.74;28.94;100099.78;6189739;23;20013;-88
2021/06/17 08:32:41;;;;;;;4.53;3.20;;;34.70;49.20;;;36.89;28.52;100097.19;6165454;23;20009;-87
2021/06/17 08:35:08;;;;;;;6.55;3.40;;;34.70;48.60;;;36.28;28.87;100095.97;6190858;23;20024;-87
2021/06/17 08:37:34;;;;;;;7.45;3.38;;;34.50;48.20;;;36.22;28.47;100086.53;6189630;23;20005;-89
2021/06/17 08:40:00;;;;;;;3.80;2.92;;;34.40;47.90;;;36.05;28.66;100083.06;6190019;23;20001;-88
2021/06/17 08:42:31;;;;;;;3.53;2.60;;;34.30;48.00;;;36.05;28.97;100067.72;6190061;23;20032;-87
2021/06/17 08:45:05;;;;;;;4.07;2.70;;;34.30;48.00;;;36.31;28.61;100073.72;6192826;23;20052;-89
2021/06/17 08:47:32;;;;;;;7.18;3.40;;;34.40;48.40;;;37.19;28.12;100079.47;6168800;23;20500;-88
2021/06/17 08:50:01;;;;;;;4.82;2.97;;;34.70;48.70;;;37.18;26.62;100077.91;6192735;23;20012;-86
2021/06/17 08:52:36;;;;;;;3.78;3.05;;;34.90;46.50;;;37.21;27.24;100079.69;6168729;23;20407;-88
2021/06/17 08:55:22;;;;;;;8.10;2.90;;;34.90;46.80;;;36.74;27.30;100074.38;6168348;23;20454;-89
2021/06/17 08:57:53;;;;;;;4.57;2.70;;;34.90;46.30;;;36.58;27.96;100077.56;6167828;23;20039;-89
2021/06/17 09:00:21;;;;;;;4.47;3.22;;;34.80;46.80;;;37.26;27.20;100067.94;6194710;23;20024;-89
2021/06/17 09:03:07;;;;;;;3.33;2.90;;;35.00;47.00;;;37.68;26.04;100063.19;6169824;23;20540;-91
2021/06/17 09:05:38;;;;;;;;;;;35.30;45.20;;;37.55;26.33;100059.47;6196914;23;20013;-90
2021/06/17 09:08:07;;;;;;;9.75;3.03;;;35.40;45.70;;;37.58;26.94;100064.19;6194293;23;20330;-86
2021/06/17 09:10:40;;;;;;;5.45;2.15;;;35.40;45.90;;;37.76;25.10;100058.22;6167106;23;20016;-85
2021/06/17 09:13:08;;;;;;;4.10;2.33;;;35.60;44.00;;;36.90;25.52;100052.94;6168361;23;20247;-88
2021/06/17 09:15:54;;;;;;;5.95;2.97;;;35.20;43.20;;;37.25;26.05;100053.94;6191967;23;20366;-89
2021/06/17 09:18:34;;;;;;;6.28;2.90;;;35.20;44.30;;;37.49;26.38;100059.59;6166296;23;20013;-86
2021/06/17 09:21:09;;;;;;;3.22;2.78;;;35.40;45.60;;;37.73;24.81;100047.69;6193867;23;20001;-89
2021/06/17 09:23:46;;;;;;;;;;;35.60;43.00;;;38.11;25.73;100042.41;6192816;23;20473;-87
2021/06/17 09:26:21;;;;;;;3.53;2.60;;;35.80;44.40;;;38.46;24.90;100041.88;6192507;23;19915;-87
2021/06/17 09:29:04;;;;;;;4.05;2.83;;;36.10;43.40;;;38.17;24.82;100043.06;6167653;23;20016;-88
2021/06/17 09:31:40;;;;;;;5.35;3.00;;;36.20;43.00;;;37.78;25.54;100034.34;6193855;23;20067;-83
2021/06/17 09:34:10;;;;;;;4.70;3.35;;;36.00;43.50;;;38.22;24.75;100033.38;6191605;23;20069;-89
2021/06/17 09:36:39;;;;;;;4.57;2.63;;;36.20;42.50;;;38.58;23.46;100039.44;6171132;23;20082;-85
2021/06/17 09:39:18;;;;;;;4.43;2.90;;;36.20;41.60;;;38.03;23.92;100032.75;6211652;23;20058;-87
2021/06/17 09:41:50;;;;;;;5.28;2.58;;;36.20;41.00;;;37.90;24.47;100026.94;6169206;23;20013;-88
2021/06/17 09:44:35;;;;;;;3.45;2.60;;;36.20;41.80;;;38.36;24.97;100042.91;6190496;23;20136;-88
2021/06/17 09:47:21;;;;;;;4.00;2.40;;;36.20;43.00;;;39.18;23.27;100044.28;6190343;23;20012;-87
2021/06/17 09:49:51;;;;;;;3.83;2.40;;;36.40;42.30;;;38.75;23.40;100054.41;6189724;23;20013;-88
2021/06/17 09:52:18;;;;;;;4.13;2.50;;;36.50;41.20;;;38.27;23.85;100043.38;6192229;23;20079;-88
2021/06/17 09:54:47;;;;;;;3.83;2.35;;;36.30;41.00;;;38.12;24.31;100040.25;6190815;23;20005;-88
2021/06/17 09:57:19;;;;;;;4.78;2.75;;;36.30;41.20;;;38.36;23.05;100031.25;6166969;23;20012;-86
2021/06/17 10:00:09;;;;;;;3.08;2.25;;;36.30;41.00;;;38.92;23.61;100033.56;6191172;23;20047;-88
2021/06/17 10:02:38;;;;;;;2.97;2.40;;;36.40;41.80;;;38.36;24.25;100032.03;6166159;23;20012;-87
2021/06/17 10:05:23;;;;;;;3.85;2.33;;;36.40;41.70;;;37.96;23.71;100048.03;6169458;23;20067;-86
2021/06/17 10:07:50;;;;;;;4.82;1.90;;;36.20;40.00;;;38.01;23.67;100049.25;6192775;23;20069;-86
2021/06/17 10:10:22;;;;;;;7.07;2.22;;;36.20;40.80;;;37.84;24.17;100056.22;6193361;23;20005;-88
2021/06/17 10:12:49;;;;;;;6.75;2.50;;;36.10;40.60;;;37.09;24.17;100055.06;6167315;23;20009;-87
2021/06/17 10:15:15;;;;;;;2.38;2.10;;;35.70;40.90;;;37.32;24.66;100053.28;6191966;23;20048;-88
2021/06/17 10:17:41;;;;;;;3.08;1.85;;;35.60;41.80;;;37.20;24.76;100035.25;6192950;23;20346;-86
2021/06/17 10:20:12;;;;;;;4.80;2.50;;;35.50;41.70;;;37.75;24.82;100033.38;6167242;23;20020;-83
2021/06/17 10:22:39;;;;;;;3.83;2.17;;;35.80;42.00;;;38.40;23.66;100041.19;6191405;23;20067;-84
2021/06/17 10:25:25;;;;;;;4.13;2.10;;;36.10;41.30;;;38.78;23.49;100032.84;6190249;23;20016;-86
2021/06/17 10:27:53;;;;;;;;;;;36.40;41.20;;;39.09;23.31;100030.97;6163908;23;20321;-86
2021/06/17 10:30:44;;;;;;;4.72;2.10;;;36.60;41.60;;;39.15;22.50;100037.44;6164119;23;19911;-84
2021/06/17 10:33:34;;;;;;;5.55;2.25;;;36.60;39.40;;;38.80;23.67;100033.06;6189327;23;20013;-85
2021/06/17 10:36:22;;;;;;;2.30;1.90;;;36.50;41.20;;;38.92;23.66;100033.56;6163177;23;20482;-85
2021/06/17 10:39:12;;;;;;;2.88;2.20;;;36.40;41.50;;;39.26;23.87;100033.47;6189102;23;20443;-84
2021/06/17 10:41:55;;;;;;;14.90;2.80;;;36.60;42.00;;;38.31;24.87;100035.81;6189470;23;20694;-84
2021/06/17 10:44:44;;;;;;;5.68;2.30;;;36.40;41.60;;;39.21;24.74;100040.22;6164155;23;20013;-87